sensor_id;sensor_type;location;lat;lon;timestamp;pressure;altitude;pressure_sealevel;temperature;humidity
25869;BME280;13688;53.154;18.136;2023-04-01T00:00:26;98961.15;;;8.51;100.00
25869;BME280;13688;53.154;18.136;2023-04-01T00:05:51;98960.45;;;8.49;100.00
25869;BME280;13688;53.154;18.136;2023-04-01T00:11:24;98960.41;;;8.59;100.00
25869;BME280;13688;53.154;18.136;2023-04-01T00:16:46;98957.22;;;8.46;100.00
25869;BME280;13688;53.154;18.136;2023-04-01T00:22:08;98952.16;;;8.43;100.00
25869;BME280;13688;53.154;18.136;2023-04-01T00:27:32;98948.64;;;8.42;100.00
25869;BME280;13688;53.154;18.136;2023-04-01T00:32:56;98951.48;;;8.41;100.00
25869;BME280;13688;53.154;18.136;2023-04-01T00:38:19;98949.92;;;8.38;100.00
25869;BME280;13688;53.154;18.136;2023-04-01T00:43:42;98948.39;;;8.36;100.00
25869;BME280;13688;53.154;18.136;2023-04-01T00:49:06;98942.19;;;8.35;100.00
25869;BME280;13688;53.154;18.136;2023-04-01T00:54:30;98943.16;;;8.34;100.00
25869;BME280;13688;53.154;18.136;2023-04-01T00:59:54;98942.05;;;8.27;100.00
25869;BME280;13688;53.154;18.136;2023-04-01T01:05:20;98944.34;;;8.22;100.00
25869;BME280;13688;53.154;18.136;2023-04-01T01:10:48;98941.09;;;8.18;100.00
25869;BME280;13688;53.154;18.136;2023-04-01T01:16:32;98935.09;;;8.07;100.00
25869;BME280;13688;53.154;18.136;2023-04-01T01:28:26;98934.98;;;7.98;100.00
25869;BME280;13688;53.154;18.136;2023-04-01T01:39:44;98942.77;;;7.92;100.00
25869;BME280;13688;53.154;18.136;2023-04-01T01:45:13;98938.69;;;7.88;100.00
25869;BME280;13688;53.154;18.136;2023-04-01T01:50:39;98943.49;;;7.84;100.00
25869;BME280;13688;53.154;18.136;2023-04-01T01:56:03;98938.17;;;7.74;100.00
25869;BME280;13688;53.154;18.136;2023-04-01T02:01:29;98937.75;;;7.69;100.00
25869;BME280;13688;53.154;18.136;2023-04-01T02:07:06;98934.83;;;7.63;100.00
25869;BME280;13688;53.154;18.136;2023-04-01T02:12:53;98941.95;;;7.72;100.00
25869;BME280;13688;53.154;18.136;2023-04-01T02:18:18;98945.38;;;7.64;100.00
25869;BME280;13688;53.154;18.136;2023-04-01T02:23:41;98937.62;;;7.61;100.00
25869;BME280;13688;53.154;18.136;2023-04-01T02:29:06;98945.09;;;7.58;100.00
25869;BME280;13688;53.154;18.136;2023-04-01T02:34:30;98936.80;;;7.51;100.00
25869;BME280;13688;53.154;18.136;2023-04-01T02:39:53;98943.43;;;7.47;100.00
25869;BME280;13688;53.154;18.136;2023-04-01T02:45:20;98944.69;;;7.43;100.00
25869;BME280;13688;53.154;18.136;2023-04-01T02:50:43;98953.00;;;7.40;100.00
25869;BME280;13688;53.154;18.136;2023-04-01T02:56:06;98953.44;;;7.35;100.00
25869;BME280;13688;53.154;18.136;2023-04-01T03:01:29;98957.95;;;7.35;100.00
25869;BME280;13688;53.154;18.136;2023-04-01T03:06:52;98959.05;;;7.32;100.00
25869;BME280;13688;53.154;18.136;2023-04-01T03:12:14;98966.95;;;7.34;100.00
25869;BME280;13688;53.154;18.136;2023-04-01T03:17:37;98972.30;;;7.34;100.00
25869;BME280;13688;53.154;18.136;2023-04-01T03:23:01;98980.03;;;7.27;100.00
25869;BME280;13688;53.154;18.136;2023-04-01T03:28:23;98983.26;;;7.21;100.00
25869;BME280;13688;53.154;18.136;2023-04-01T03:33:46;98986.63;;;7.13;100.00
25869;BME280;13688;53.154;18.136;2023-04-01T03:39:09;98987.75;;;7.01;100.00
25869;BME280;13688;53.154;18.136;2023-04-01T03:44:32;98985.91;;;6.92;100.00
25869;BME280;13688;53.154;18.136;2023-04-01T03:49:54;99000.94;;;6.83;100.00
25869;BME280;13688;53.154;18.136;2023-04-01T03:55:17;99003.05;;;6.80;100.00
25869;BME280;13688;53.154;18.136;2023-04-01T04:00:41;98995.17;;;6.78;100.00
25869;BME280;13688;53.154;18.136;2023-04-01T04:06:04;99006.84;;;6.77;100.00
25869;BME280;13688;53.154;18.136;2023-04-01T04:11:30;99010.73;;;6.64;100.00
25869;BME280;13688;53.154;18.136;2023-04-01T04:16:52;99020.14;;;6.58;100.00
25869;BME280;13688;53.154;18.136;2023-04-01T04:22:15;99029.95;;;6.48;100.00
25869;BME280;13688;53.154;18.136;2023-04-01T04:27:37;99032.82;;;6.35;100.00
25869;BME280;13688;53.154;18.136;2023-04-01T04:33:01;99035.77;;;6.32;100.00
25869;BME280;13688;53.154;18.136;2023-04-01T04:38:23;99040.92;;;6.24;100.00
25869;BME280;13688;53.154;18.136;2023-04-01T04:43:51;99044.98;;;6.18;100.00
25869;BME280;13688;53.154;18.136;2023-04-01T04:49:15;99054.81;;;6.18;100.00
25869;BME280;13688;53.154;18.136;2023-04-01T04:54:37;99053.51;;;6.12;100.00
25869;BME280;13688;53.154;18.136;2023-04-01T04:59:59;99069.32;;;6.04;100.00
25869;BME280;13688;53.154;18.136;2023-04-01T05:05:23;99066.02;;;5.91;100.00
25869;BME280;13688;53.154;18.136;2023-04-01T05:10:45;99076.18;;;5.86;100.00
25869;BME280;13688;53.154;18.136;2023-04-01T05:16:09;99083.06;;;5.67;100.00
25869;BME280;13688;53.154;18.136;2023-04-01T05:21:33;99083.12;;;5.56;100.00
25869;BME280;13688;53.154;18.136;2023-04-01T05:26:56;99097.73;;;5.41;100.00
25869;BME280;13688;53.154;18.136;2023-04-01T05:32:18;99101.60;;;5.37;100.00
25869;BME280;13688;53.154;18.136;2023-04-01T05:37:41;99106.93;;;5.37;100.00
25869;BME280;13688;53.154;18.136;2023-04-01T05:43:04;99106.97;;;5.26;100.00
25869;BME280;13688;53.154;18.136;2023-04-01T05:48:27;99113.02;;;5.28;100.00
25869;BME280;13688;53.154;18.136;2023-04-01T05:53:50;99110.22;;;5.29;100.00
25869;BME280;13688;53.154;18.136;2023-04-01T05:59:12;99116.91;;;5.24;100.00
25869;BME280;13688;53.154;18.136;2023-04-01T06:04:39;99115.22;;;5.23;100.00
25869;BME280;13688;53.154;18.136;2023-04-01T06:10:05;99122.38;;;5.22;100.00
25869;BME280;13688;53.154;18.136;2023-04-01T06:15:42;99123.93;;;5.25;100.00
25869;BME280;13688;53.154;18.136;2023-04-01T06:44:43;99141.77;;;5.56;100.00
25869;BME280;13688;53.154;18.136;2023-04-01T06:50:36;99153.67;;;5.84;100.00
25869;BME280;13688;53.154;18.136;2023-04-01T06:56:09;99159.18;;;5.71;100.00
25869;BME280;13688;53.154;18.136;2023-04-01T07:01:41;99167.50;;;5.78;100.00
25869;BME280;13688;53.154;18.136;2023-04-01T07:12:52;99171.36;;;5.85;100.00
25869;BME280;13688;53.154;18.136;2023-04-01T07:18:30;99183.01;;;5.84;100.00
25869;BME280;13688;53.154;18.136;2023-04-01T07:23:50;99201.31;;;5.89;100.00
25869;BME280;13688;53.154;18.136;2023-04-01T07:29:17;99208.44;;;5.88;100.00
25869;BME280;13688;53.154;18.136;2023-04-01T07:40:39;99217.23;;;5.79;100.00
25869;BME280;13688;53.154;18.136;2023-04-01T07:46:17;99212.73;;;5.80;100.00
25869;BME280;13688;53.154;18.136;2023-04-01T07:57:43;99225.98;;;5.59;100.00
25869;BME280;13688;53.154;18.136;2023-04-01T08:20:08;99270.02;;;5.31;100.00
25869;BME280;13688;53.154;18.136;2023-04-01T08:25:34;99272.80;;;5.40;100.00
25869;BME280;13688;53.154;18.136;2023-04-01T08:31:12;99281.25;;;5.57;100.00
25869;BME280;13688;53.154;18.136;2023-04-01T08:36:38;99286.58;;;5.79;100.00
25869;BME280;13688;53.154;18.136;2023-04-01T08:48:06;99285.70;;;6.01;100.00
25869;BME280;13688;53.154;18.136;2023-04-01T08:53:59;99289.08;;;6.03;100.00
25869;BME280;13688;53.154;18.136;2023-04-01T09:22:25;99329.39;;;6.32;94.51
25869;BME280;13688;53.154;18.136;2023-04-01T09:28:05;99339.27;;;6.20;94.23
25869;BME280;13688;53.154;18.136;2023-04-01T09:45:00;99355.16;;;6.54;93.70
25869;BME280;13688;53.154;18.136;2023-04-01T09:51:01;99361.30;;;6.66;92.88
25869;BME280;13688;53.154;18.136;2023-04-01T10:09:26;99377.80;;;6.71;90.98
25869;BME280;13688;53.154;18.136;2023-04-01T10:15:17;99383.94;;;6.82;90.25
25869;BME280;13688;53.154;18.136;2023-04-01T10:21:13;99389.70;;;6.99;89.52
25869;BME280;13688;53.154;18.136;2023-04-01T10:32:52;99398.33;;;6.70;88.62
25869;BME280;13688;53.154;18.136;2023-04-01T10:38:20;99399.73;;;6.85;89.16
25869;BME280;13688;53.154;18.136;2023-04-01T10:44:06;99400.20;;;7.11;89.42
25869;BME280;13688;53.154;18.136;2023-04-01T10:49:46;99406.11;;;6.94;88.72
25869;BME280;13688;53.154;18.136;2023-04-01T10:55:48;99403.70;;;6.91;88.20
25869;BME280;13688;53.154;18.136;2023-04-01T11:13:35;99432.81;;;7.05;87.48
25869;BME280;13688;53.154;18.136;2023-04-01T11:19:18;99434.37;;;7.08;87.41
25869;BME280;13688;53.154;18.136;2023-04-01T11:25:06;99442.06;;;7.22;86.94
25869;BME280;13688;53.154;18.136;2023-04-01T11:30:53;99449.64;;;7.17;86.27
25869;BME280;13688;53.154;18.136;2023-04-01T11:42:40;99469.95;;;6.76;86.43
25869;BME280;13688;53.154;18.136;2023-04-01T12:12:10;99491.16;;;7.21;83.39
25869;BME280;13688;53.154;18.136;2023-04-01T12:17:51;99502.75;;;7.10;82.65
25869;BME280;13688;53.154;18.136;2023-04-01T12:59:07;99538.07;;;7.25;81.73
25869;BME280;13688;53.154;18.136;2023-04-01T13:04:47;99540.83;;;7.35;80.73
25869;BME280;13688;53.154;18.136;2023-04-01T13:16:08;99558.71;;;7.23;79.10
25869;BME280;13688;53.154;18.136;2023-04-01T13:27:44;99578.23;;;6.92;79.17
25869;BME280;13688;53.154;18.136;2023-04-01T13:33:20;99584.42;;;6.92;79.76
25869;BME280;13688;53.154;18.136;2023-04-01T13:39:15;99599.38;;;6.83;79.58
25869;BME280;13688;53.154;18.136;2023-04-01T14:15:27;99638.69;;;6.37;80.30
25869;BME280;13688;53.154;18.136;2023-04-01T14:27:09;99652.39;;;6.21;80.36
25869;BME280;13688;53.154;18.136;2023-04-01T14:50:22;99673.94;;;5.83;80.25
25869;BME280;13688;53.154;18.136;2023-04-01T14:55:50;99687.72;;;5.77;80.44
25869;BME280;13688;53.154;18.136;2023-04-01T15:01:32;99700.56;;;5.71;80.75
25869;BME280;13688;53.154;18.136;2023-04-01T15:12:59;99715.00;;;5.56;81.30
25869;BME280;13688;53.154;18.136;2023-04-01T15:18:41;99719.86;;;5.38;81.41
25869;BME280;13688;53.154;18.136;2023-04-01T15:42:11;99768.94;;;5.10;82.23
25869;BME280;13688;53.154;18.136;2023-04-01T15:59:41;99774.41;;;4.83;83.11
25869;BME280;13688;53.154;18.136;2023-04-01T16:11:22;99795.03;;;4.54;83.17
25869;BME280;13688;53.154;18.136;2023-04-01T16:23:14;99818.20;;;4.40;84.02
25869;BME280;13688;53.154;18.136;2023-04-01T16:46:21;99866.99;;;3.99;84.87
25869;BME280;13688;53.154;18.136;2023-04-01T16:52:12;99878.12;;;3.91;85.25
25869;BME280;13688;53.154;18.136;2023-04-01T16:57:48;99885.65;;;3.70;85.56
25869;BME280;13688;53.154;18.136;2023-04-01T17:03:17;99890.22;;;3.68;86.02
25869;BME280;13688;53.154;18.136;2023-04-01T17:14:45;99903.11;;;3.46;86.37
25869;BME280;13688;53.154;18.136;2023-04-01T17:20:46;99918.39;;;3.42;86.00
25869;BME280;13688;53.154;18.136;2023-04-01T17:26:37;99917.73;;;3.39;85.53
25869;BME280;13688;53.154;18.136;2023-04-01T17:32:26;99938.50;;;3.32;85.29
25869;BME280;13688;53.154;18.136;2023-04-01T17:38:34;99945.72;;;3.30;85.29
25869;BME280;13688;53.154;18.136;2023-04-01T17:44:10;99960.02;;;3.28;85.43
25869;BME280;13688;53.154;18.136;2023-04-01T17:49:50;99965.91;;;3.19;85.60
25869;BME280;13688;53.154;18.136;2023-04-01T18:24:49;100014.52;;;2.89;86.91
25869;BME280;13688;53.154;18.136;2023-04-01T18:30:20;100016.42;;;2.87;86.82
25869;BME280;13688;53.154;18.136;2023-04-01T18:42:03;100033.05;;;2.91;87.05
25869;BME280;13688;53.154;18.136;2023-04-01T18:48:02;100042.12;;;2.86;87.12
25869;BME280;13688;53.154;18.136;2023-04-01T18:53:44;100052.49;;;2.91;87.43
25869;BME280;13688;53.154;18.136;2023-04-01T18:59:18;100060.27;;;2.78;87.21
25869;BME280;13688;53.154;18.136;2023-04-01T19:16:40;100084.27;;;2.61;87.59
25869;BME280;13688;53.154;18.136;2023-04-01T19:22:33;100091.29;;;2.62;87.83
25869;BME280;13688;53.154;18.136;2023-04-01T19:28:31;100106.36;;;2.62;88.04
25869;BME280;13688;53.154;18.136;2023-04-01T19:57:03;100146.50;;;2.22;90.94
25869;BME280;13688;53.154;18.136;2023-04-01T20:02:38;100143.39;;;2.14;92.23
25869;BME280;13688;53.154;18.136;2023-04-01T20:08:42;100157.72;;;2.10;93.63
25869;BME280;13688;53.154;18.136;2023-04-01T20:14:36;100161.70;;;2.19;95.89
25869;BME280;13688;53.154;18.136;2023-04-01T20:25:51;100174.74;;;2.06;96.87
25869;BME280;13688;53.154;18.136;2023-04-01T21:06:02;100208.49;;;2.03;97.55
25869;BME280;13688;53.154;18.136;2023-04-01T21:35:23;100241.20;;;2.03;95.14
25869;BME280;13688;53.154;18.136;2023-04-01T21:40:59;100241.25;;;2.01;95.00
25869;BME280;13688;53.154;18.136;2023-04-01T21:52:36;100253.56;;;2.03;95.03
25869;BME280;13688;53.154;18.136;2023-04-01T22:04:18;100255.31;;;2.04;95.08
25869;BME280;13688;53.154;18.136;2023-04-01T22:10:02;100257.89;;;2.05;95.09
25869;BME280;13688;53.154;18.136;2023-04-01T22:21:50;100264.44;;;2.15;95.44
25869;BME280;13688;53.154;18.136;2023-04-01T22:27:41;100273.34;;;2.14;94.82
25869;BME280;13688;53.154;18.136;2023-04-01T22:39:15;100287.19;;;2.02;94.16
25869;BME280;13688;53.154;18.136;2023-04-01T22:57:05;100306.68;;;2.01;93.65
25869;BME280;13688;53.154;18.136;2023-04-01T23:02:42;100314.51;;;2.04;93.50
25869;BME280;13688;53.154;18.136;2023-04-01T23:08:45;100306.68;;;2.01;93.18
25869;BME280;13688;53.154;18.136;2023-04-01T23:14:31;100324.30;;;2.02;92.74
25869;BME280;13688;53.154;18.136;2023-04-01T23:20:32;100327.81;;;2.03;92.20
25869;BME280;13688;53.154;18.136;2023-04-01T23:26:12;100327.11;;;1.99;91.69
25869;BME280;13688;53.154;18.136;2023-04-01T23:31:48;100341.07;;;2.03;91.25
25869;BME280;13688;53.154;18.136;2023-04-01T23:37:15;100345.52;;;2.02;90.83
25869;BME280;13688;53.154;18.136;2023-04-01T23:42:46;100347.31;;;2.01;90.62
25869;BME280;13688;53.154;18.136;2023-04-01T23:48:02;100362.44;;;1.99;90.53
25869;BME280;13688;53.154;18.136;2023-04-01T23:53:33;100366.11;;;1.97;90.45
25869;BME280;13688;53.154;18.136;2023-04-01T23:58:58;100380.22;;;1.97;90.41
